Aérodrome :







RETROUVEZ-NOUS SUR...

 
LOGIN :

S'inscrire | Disclaimer

   EN    FR    IT 

 









Légende :    VFR   VFR Marginal   IFR   IFR Intensif   IFR Très Intensif
Visi : 
Plafond : 
>= 8 km
>= 3000ft
5 à 8 km
1000 à 3000 ft
1500m à 5 km
500 à 1000 ft
800 à 1500m
200 à 500 ft
< 800m
< 200 ft
Symboles :   Orages  Brouillard  Fortes neiges  Fortes précipitations  Vent > 20 kt






- Altitude de l'aérodrome : 342 ft


KCON - Concord Municipal

DERNIER METAR :
  • 032151Z AUTO VRB03KT 10SM OVC025 21/16 A2992 RMK AO2 SLP129 T02110161

METARs EXPIRÉS :
  • 032051Z AUTO 10006KT 10SM OVC025 22/17 A2992 RMK AO2 SLP130 T02170167 58001
  • 031951Z AUTO 07005KT 10SM OVC024 22/17 A2992 RMK AO2 SLP130 T02220167

TAF KCON
Valide du 03 à 21h jusqu'au 04 à 18h UTC


032041Z 0321/0418 09009KT P6SM BKN025 OVC040
FM040100 VRB03KT 4SM BR BKN005
FM041300 04005KT P6SM BKN025
FIR KZBW / Amérique du Nord



MET'MAP, la Météo Aéronautique d'un coup d'oeil ! - Copyright ORBIFLY Décembre 2007 - Disclaimer

ORBIFLY MET'MAP TEAM :

Programmation & Développement : Alexandra Zaïnal
Sur une idée originale de : Baudouin d'Aumeries
Assistance à la programmation : Marc-Olivier Méhu
Soutien technique & logistique : Manuel Goepfert

Contact : metmap@orbifly.com




SOURCES & CREDITS :

   NOAA